Time;durP1;ratioP1;P1;durP2;ratioP2;P2;SDS_P1;SDS_P2;PMS_P1;PMS_P2;Temp;Humidity;BMP_temperature;BMP_pressure;BME280_temperature;BME280_humidity;BME280_pressure;Samples;Min_cycle;Max_cycle;Signal;HPM_P1;HPM_P2
2023/07/22 00:00:31;;;;;;;;;;;;;;;;;;5326759;28;20278;-72
2023/07/22 00:03:02;;;;;;;;;;;;;;;;;;5328118;28;19930;-72
2023/07/22 00:05:33;;;;;;;;;;;;;;;;;;5327280;28;19965;-73
2023/07/22 00:08:05;;;;;;;;;;;;;;;;;;5327358;28;19910;-72
2023/07/22 00:10:36;;;;;;;;;;;;;;;;;;5327220;28;19900;-72
2023/07/22 00:13:07;;;;;;;;;;;;;;;;;;5327211;28;19957;-72
2023/07/22 00:15:38;;;;;;;;;;;;;;;;;;5327214;28;19900;-72
2023/07/22 00:18:10;;;;;;;;;;;;;;;;;;5327593;28;20382;-72
2023/07/22 00:20:42;;;;;;;;;;;;;;;;;;5326275;28;19970;-72
2023/07/22 00:23:15;;;;;;;;;;;;;;;;;;5327708;28;20389;-72
2023/07/22 00:25:46;;;;;;;;;;;;;;;;;;5326981;28;19945;-72
2023/07/22 00:28:18;;;;;;;;;;;;;;;;;;5326424;28;20346;-72
2023/07/22 00:30:49;;;;;;;;;;;;;;;;;;5326751;28;20389;-72
2023/07/22 00:33:21;;;;;;;;;;;;;;;;;;5327031;28;19919;-72
2023/07/22 00:35:52;;;;;;;;;;;;;;;;;;5325610;28;19903;-72
2023/07/22 00:38:24;;;;;;;;;;;;;;;;;;5327017;28;19973;-72
2023/07/22 00:40:55;;;;;;;;;;;;;;;;;;5326890;28;19986;-72
2023/07/22 00:43:26;;;;;;;;;;;;;;;;;;5325736;28;19904;-72
2023/07/22 00:45:57;;;;;;;;;;;;;;;;;;5326620;28;19980;-72
2023/07/22 00:48:28;;;;;;;;;;;;;;;;;;5325744;28;20287;-72
2023/07/22 00:51:00;;;;;;;;;;;;;;;;;;5326956;28;19903;-72
2023/07/22 00:53:31;;;;;;;;;;;;;;;;;;5326491;28;19957;-72
2023/07/22 00:56:02;;;;;;;;;;;;;;;;;;5326449;28;19964;-72
2023/07/22 00:58:33;;;;;;;;;;;;;;;;;;5326426;28;19904;-72
2023/07/22 01:01:04;;;;;;;;;;;;;;;;;;5326964;28;19986;-72
2023/07/22 01:03:35;;;;;;;;;;;;;;;;;;5325157;28;19910;-72
2023/07/22 01:06:07;;;;;;;;;;;;;;;;;;5326457;28;19965;-72
2023/07/22 01:08:38;;;;;;;;;;;;;;;;;;5326099;28;19957;-73
2023/07/22 01:11:09;;;;;;;;;;;;;;;;;;5325675;28;19907;-72
2023/07/22 01:13:40;;;;;;;;;;;;;;;;;;5326024;28;19904;-72
2023/07/22 01:16:11;;;;;;;;;;;;;;;;;;5326733;28;19904;-72
2023/07/22 01:18:42;;;;;;;;;;;;;;;;;;5325550;28;19907;-72
2023/07/22 01:21:15;;;;;;;;;;;;;;;;;;5326547;28;19998;-72
2023/07/22 01:23:46;;;;;;;;;;;;;;;;;;5324782;28;19991;-72
2023/07/22 01:26:17;;;;;;;;;;;;;;;;;;5307735;28;20015;-72
2023/07/22 01:28:48;;;;;;;;;;;;;;;;;;5325419;28;20002;-72
2023/07/22 01:31:19;;;;;;;;;;;;;;;;;;5325531;28;19967;-72
2023/07/22 01:33:52;;;;;;;;;;;;;;;;;;5325611;28;19956;-73
2023/07/22 01:36:23;;;;;;;;;;;;;;;;;;5325943;28;19904;-72
2023/07/22 01:38:54;;;;;;;;;;;;;;;;;;5324781;28;19926;-72
2023/07/22 01:41:27;;;;;;;;;;;;;;;;;;5325347;28;19903;-73
2023/07/22 01:43:59;;;;;;;;;;;;;;;;;;5325697;28;20385;-72
2023/07/22 01:46:30;;;;;;;;;;;;;;;;;;5324382;28;19912;-72
2023/07/22 01:49:01;;;;;;;;;;;;;;;;;;5325991;28;20378;-72
2023/07/22 01:51:33;;;;;;;;;;;;;;;;;;5324524;28;20352;-72
2023/07/22 01:54:04;;;;;;;;;;;;;;;;;;5326101;28;20262;-73
2023/07/22 01:56:35;;;;;;;;;;;;;;;;;;5325195;28;19910;-73
2023/07/22 01:59:06;;;;;;;;;;;;;;;;;;5325298;28;19911;-72
2023/07/22 02:01:38;;;;;;;;;;;;;;;;;;5325187;28;19904;-72
2023/07/22 02:04:10;;;;;;;;;;;;;;;;;;5325468;28;19904;-72
2023/07/22 02:06:41;;;;;;;;;;;;;;;;;;5323926;28;19984;-73
2023/07/22 02:09:13;;;;;;;;;;;;;;;;;;5325571;28;19951;-73
2023/07/22 02:11:44;;;;;;;;;;;;;;;;;;5324954;28;19978;-72
2023/07/22 02:14:15;;;;;;;;;;;;;;;;;;5324730;28;19904;-72
2023/07/22 02:16:47;;;;;;;;;;;;;;;;;;5324860;28;20362;-73
2023/07/22 02:19:18;;;;;;;;;;;;;;;;;;5325391;28;19955;-72
2023/07/22 02:21:49;;;;;;;;;;;;;;;;;;5324154;28;19908;-72
2023/07/22 02:24:20;;;;;;;;;;;;;;;;;;5325060;28;19949;-72
2023/07/22 02:26:51;;;;;;;;;;;;;;;;;;5323528;28;19976;-73
2023/07/22 02:29:22;;;;;;;;;;;;;;;;;;5324918;28;19947;-72
2023/07/22 02:31:53;;;;;;;;;;;;;;;;;;5324264;28;20003;-72
2023/07/22 02:34:24;;;;;;;;;;;;;;;;;;5323820;28;19903;-72
2023/07/22 02:36:56;;;;;;;;;;;;;;;;;;5325030;28;20255;-73
2023/07/22 02:39:27;;;;;;;;;;;;;;;;;;5324798;28;19908;-73
2023/07/22 02:41:58;;;;;;;;;;;;;;;;;;5323883;28;19926;-72
2023/07/22 02:44:29;;;;;;;;;;;;;;;;;;5324543;28;20445;-72
2023/07/22 02:47:00;;;;;;;;;;;;;;;;;;5324891;28;19926;-72
2023/07/22 02:49:32;;;;;;;;;;;;;;;;;;5323516;28;19930;-72
2023/07/22 02:52:03;;;;;;;;;;;;;;;;;;5323836;28;19907;-72
2023/07/22 02:54:34;;;;;;;;;;;;;;;;;;5324142;28;20327;-72
2023/07/22 02:57:05;;;;;;;;;;;;;;;;;;5323923;28;19904;-72
2023/07/22 02:59:36;;;;;;;;;;;;;;;;;;5324420;28;19904;-73
2023/07/22 03:02:08;;;;;;;;;;;;;;;;;;5324137;28;20026;-73
2023/07/22 03:04:39;;;;;;;;;;;;;;;;;;5323804;28;19907;-73
2023/07/22 03:07:10;;;;;;;;;;;;;;;;;;5325335;28;19904;-73
2023/07/22 03:09:41;;;;;;;;;;;;;;;;;;5323162;28;19899;-73
2023/07/22 03:12:12;;;;;;;;;;;;;;;;;;5324781;28;19904;-72
2023/07/22 03:14:43;;;;;;;;;;;;;;;;;;5324074;28;19906;-72
2023/07/22 03:17:16;;;;;;;;;;;;;;;;;;5323631;28;20049;-73
2023/07/22 03:19:47;;;;;;;;;;;;;;;;;;5323786;28;19940;-73
2023/07/22 03:22:19;;;;;;;;;;;;;;;;;;5324406;28;20341;-73
2023/07/22 03:24:50;;;;;;;;;;;;;;;;;;5322983;28;19923;-73
2023/07/22 03:27:21;;;;;;;;;;;;;;;;;;5324110;28;19904;-72
2023/07/22 03:29:52;;;;;;;;;;;;;;;;;;5323453;28;19911;-73
2023/07/22 03:32:23;;;;;;;;;;;;;;;;;;5323123;28;20251;-73
2023/07/22 03:34:54;;;;;;;;;;;;;;;;;;5323802;28;19903;-73
2023/07/22 03:37:25;;;;;;;;;;;;;;;;;;5323085;28;19904;-73
2023/07/22 03:39:57;;;;;;;;;;;;;;;;;;5323635;28;19911;-73
2023/07/22 03:42:28;;;;;;;;;;;;;;;;;;5323689;28;19908;-72
2023/07/22 03:45:00;;;;;;;;;;;;;;;;;;5323079;28;19918;-73
2023/07/22 03:47:31;;;;;;;;;;;;;;;;;;5323671;28;19938;-72
2023/07/22 03:50:02;;;;;;;;;;;;;;;;;;5324083;28;19907;-72
2023/07/22 03:52:33;;;;;;;;;;;;;;;;;;5322687;28;19907;-72
2023/07/22 03:55:05;;;;;;;;;;;;;;;;;;5324328;28;19910;-73
2023/07/22 03:57:36;;;;;;;;;;;;;;;;;;5323616;28;19903;-72
2023/07/22 04:00:10;;;;;;;;;;;;;;;;;;5323418;28;19904;-74
2023/07/22 04:02:42;;;;;;;;;;;;;;;;;;5324365;28;19914;-73
2023/07/22 04:05:13;;;;;;;;;;;;;;;;;;5327067;28;20285;-73
2023/07/22 04:07:44;;;;;;;;;;;;;;;;;;5309225;28;19956;-73
2023/07/22 04:10:15;;;;;;;;;;;;;;;;;;5327739;28;19899;-72
2023/07/22 04:12:46;;;;;;;;;;;;;;;;;;5326411;28;19964;-73
2023/07/22 04:15:17;;;;;;;;;;;;;;;;;;5327637;28;19951;-73
2023/07/22 04:17:49;;;;;;;;;;;;;;;;;;5326883;28;20639;-73
2023/07/22 04:20:20;;;;;;;;;;;;;;;;;;5326911;28;19900;-72
2023/07/22 04:22:51;;;;;;;;;;;;;;;;;;5326998;28;19911;-73
2023/07/22 04:25:22;;;;;;;;;;;;;;;;;;5327474;28;19911;-72
2023/07/22 04:27:53;;;;;;;;;;;;;;;;;;5325819;28;19985;-73
2023/07/22 04:30:24;;;;;;;;;;;;;;;;;;5327067;28;19973;-73
2023/07/22 04:32:55;;;;;;;;;;;;;;;;;;5326829;28;20006;-72
2023/07/22 04:35:26;;;;;;;;;;;;;;;;;;5326369;28;20045;-72
2023/07/22 04:37:57;;;;;;;;;;;;;;;;;;5326938;28;19987;-72
2023/07/22 04:40:30;;;;;;;;;;;;;;;;;;5326199;28;19903;-72
2023/07/22 04:43:01;;;;;;;;;;;;;;;;;;5327441;28;20389;-73
2023/07/22 04:45:34;;;;;;;;;;;;;;;;;;5326284;28;19915;-73
2023/07/22 04:48:05;;;;;;;;;;;;;;;;;;5325916;28;19998;-72
2023/07/22 04:50:40;;;;;;;;;;;;;;;;;;5326096;28;19990;-73
2023/07/22 04:53:12;;;;;;;;;;;;;;;;;;5326617;28;20270;-72
2023/07/22 04:55:44;;;;;;;;;;;;;;;;;;5325588;28;19907;-73
2023/07/22 04:58:15;;;;;;;;;;;;;;;;;;5326708;28;20366;-73
2023/07/22 05:00:46;;;;;;;;;;;;;;;;;;5325951;28;19904;-72
2023/07/22 05:03:18;;;;;;;;;;;;;;;;;;5325613;28;19949;-72
2023/07/22 05:05:49;;;;;;;;;;;;;;;;;;5326128;28;19920;-73
2023/07/22 05:08:20;;;;;;;;;;;;;;;;;;5326661;28;19903;-72
2023/07/22 05:10:51;;;;;;;;;;;;;;;;;;5325363;28;19911;-72
2023/07/22 05:13:22;;;;;;;;;;;;;;;;;;5326730;28;19908;-72
2023/07/22 05:15:53;;;;;;;;;;;;;;;;;;5324227;28;20014;-73
2023/07/22 05:18:24;;;;;;;;;;;;;;;;;;5326296;28;19908;-73
2023/07/22 05:20:55;;;;;;;;;;;;;;;;;;5326493;28;19910;-73
2023/07/22 05:23:27;;;;;;;;;;;;;;;;;;5325149;28;19903;-73
2023/07/22 05:25:58;;;;;;;;;;;;;;;;;;5326042;28;19911;-73
2023/07/22 05:28:29;;;;;;;;;;;;;;;;;;5325941;28;19904;-73
2023/07/22 05:31:01;;;;;;;;;;;;;;;;;;5325314;28;19912;-73
2023/07/22 05:33:32;;;;;;;;;;;;;;;;;;5325816;28;20399;-73
2023/07/22 05:36:03;;;;;;;;;;;;;;;;;;5325936;28;19910;-72
2023/07/22 05:38:34;;;;;;;;;;;;;;;;;;5324950;28;19943;-73
2023/07/22 05:41:05;;;;;;;;;;;;;;;;;;5326120;28;19958;-73
2023/07/22 05:43:36;;;;;;;;;;;;;;;;;;5324738;28;20340;-72
2023/07/22 05:46:07;;;;;;;;;;;;;;;;;;5326072;28;19997;-72
2023/07/22 05:48:39;;;;;;;;;;;;;;;;;;5325431;28;19910;-71
2023/07/22 05:51:10;;;;;;;;;;;;;;;;;;5325000;28;20384;-72
2023/07/22 05:53:41;;;;;;;;;;;;;;;;;;5325542;28;19911;-72
2023/07/22 05:56:12;;;;;;;;;;;;;;;;;;5325623;28;19908;-72
2023/07/22 05:58:43;;;;;;;;;;;;;;;;;;5324267;28;20255;-72
2023/07/22 06:01:15;;;;;;;;;;;;;;;;;;5325903;28;19996;-72
2023/07/22 06:03:46;;;;;;;;;;;;;;;;;;5324853;28;20047;-72
2023/07/22 06:06:17;;;;;;;;;;;;;;;;;;5324763;28;20312;-72
2023/07/22 06:08:48;;;;;;;;;;;;;;;;;;5324762;28;19910;-72
2023/07/22 06:11:19;;;;;;;;;;;;;;;;;;5325434;28;19904;-72
2023/07/22 06:13:50;;;;;;;;;;;;;;;;;;5323916;28;20052;-72
2023/07/22 06:16:21;;;;;;;;;;;;;;;;;;5324957;28;20348;-72
2023/07/22 06:18:53;;;;;;;;;;;;;;;;;;5323648;28;20297;-72
2023/07/22 06:21:24;;;;;;;;;;;;;;;;;;5324652;28;20063;-72
2023/07/22 06:23:56;;;;;;;;;;;;;;;;;;5324675;28;19908;-72
2023/07/22 06:26:27;;;;;;;;;;;;;;;;;;5305339;28;19912;-72
2023/07/22 06:28:58;;;;;;;;;;;;;;;;;;5324469;28;20411;-71
2023/07/22 06:31:30;;;;;;;;;;;;;;;;;;5324242;28;19951;-72
2023/07/22 06:34:01;;;;;;;;;;;;;;;;;;5324272;28;19908;-72
2023/07/22 06:36:32;;;;;;;;;;;;;;;;;;5324028;28;19908;-72
2023/07/22 06:39:03;;;;;;;;;;;;;;;;;;5324778;28;19904;-71
2023/07/22 06:41:34;;;;;;;;;;;;;;;;;;5323643;28;19903;-72
2023/07/22 06:44:06;;;;;;;;;;;;;;;;;;5324808;28;19910;-72
2023/07/22 06:46:37;;;;;;;;;;;;;;;;;;5324098;28;19911;-72
2023/07/22 06:49:08;;;;;;;;;;;;;;;;;;5323782;28;19908;-72
2023/07/22 06:51:39;;;;;;;;;;;;;;;;;;5323920;28;19907;-73
2023/07/22 06:54:10;;;;;;;;;;;;;;;;;;5323701;28;19904;-72
2023/07/22 06:56:41;;;;;;;;;;;;;;;;;;5324120;28;19904;-72
2023/07/22 06:59:12;;;;;;;;;;;;;;;;;;5324710;28;19908;-73
2023/07/22 07:01:43;;;;;;;;;;;;;;;;;;5323406;28;19908;-72
2023/07/22 07:04:14;;;;;;;;;;;;;;;;;;5324543;28;19904;-72
2023/07/22 07:06:45;;;;;;;;;;;;;;;;;;5323842;28;20350;-72
2023/07/22 07:09:17;;;;;;;;;;;;;;;;;;5323705;28;19910;-72
2023/07/22 07:11:48;;;;;;;;;;;;;;;;;;5323878;28;19908;-72
2023/07/22 07:14:19;;;;;;;;;;;;;;;;;;5324464;28;20270;-73
2023/07/22 07:16:50;;;;;;;;;;;;;;;;;;5322979;28;19908;-73
2023/07/22 07:19:21;;;;;;;;;;;;;;;;;;5324272;28;20373;-73
2023/07/22 07:21:52;;;;;;;;;;;;;;;;;;5323590;28;19915;-74
2023/07/22 07:24:23;;;;;;;;;;;;;;;;;;5322766;28;19904;-73
2023/07/22 07:26:54;;;;;;;;;;;;;;;;;;5323901;28;20332;-73
2023/07/22 07:29:25;;;;;;;;;;;;;;;;;;5323011;28;20411;-73
2023/07/22 07:31:57;;;;;;;;;;;;;;;;;;5323892;28;19994;-74
2023/07/22 07:34:28;;;;;;;;;;;;;;;;;;5323771;28;19911;-73
2023/07/22 07:36:59;;;;;;;;;;;;;;;;;;5323309;28;20362;-74
2023/07/22 07:39:30;;;;;;;;;;;;;;;;;;5327437;28;19908;-74
2023/07/22 07:42:01;;;;;;;;;;;;;;;;;;5328601;28;20316;-73
2023/07/22 07:44:32;;;;;;;;;;;;;;;;;;5326874;28;19907;-73
2023/07/22 07:47:03;;;;;;;;;;;;;;;;;;5328270;28;19904;-73
2023/07/22 07:49:34;;;;;;;;;;;;;;;;;;5327698;28;20389;-74
2023/07/22 07:52:05;;;;;;;;;;;;;;;;;;5327179;28;19903;-72
2023/07/22 07:54:37;;;;;;;;;;;;;;;;;;5327631;28;19964;-72
2023/07/22 07:57:08;;;;;;;;;;;;;;;;;;5328207;28;19904;-73
2023/07/22 07:59:39;;;;;;;;;;;;;;;;;;5326644;28;20362;-72
2023/07/22 08:02:10;;;;;;;;;;;;;;;;;;5327917;28;19904;-73
2023/07/22 08:04:41;;;;;;;;;;;;;;;;;;5326418;28;19908;-74
2023/07/22 08:07:14;;;;;;;;;;;;;;;;;;5328106;28;20347;-73
2023/07/22 08:09:48;;;;;;;;;;;;;;;;;;5327570;28;19900;-74
2023/07/22 08:12:19;;;;;;;;;;;;;;;;;;5308207;28;19907;-73
2023/07/22 08:14:50;;;;;;;;;;;;;;;;;;5326439;28;19937;-73
2023/07/22 08:17:21;;;;;;;;;;;;;;;;;;5315906;28;19969;-73
2023/07/22 08:19:53;;;;;;;;;;;;;;;;;;5323867;28;19910;-74
2023/07/22 08:22:24;;;;;;;;;;;;;;;;;;5326866;28;19980;-74
2023/07/22 08:24:55;;;;;;;;;;;;;;;;;;5326864;28;19915;-74
2023/07/22 08:27:26;;;;;;;;;;;;;;;;;;5326164;28;19904;-73
2023/07/22 08:29:57;;;;;;;;;;;;;;;;;;5326309;28;20326;-73
2023/07/22 08:32:28;;;;;;;;;;;;;;;;;;5326266;28;19915;-74
2023/07/22 08:34:59;;;;;;;;;;;;;;;;;;5325255;28;19911;-74
2023/07/22 08:37:31;;;;;;;;;;;;;;;;;;5325761;28;19904;-74
2023/07/22 08:40:02;;;;;;;;;;;;;;;;;;5326261;28;19903;-74
2023/07/22 08:42:33;;;;;;;;;;;;;;;;;;5326707;28;19949;-75
2023/07/22 08:45:04;;;;;;;;;;;;;;;;;;5327078;28;19998;-75
2023/07/22 08:47:36;;;;;;;;;;;;;;;;;;5325760;28;20040;-75
2023/07/22 08:50:07;;;;;;;;;;;;;;;;;;5325507;28;19948;-74
2023/07/22 08:52:38;;;;;;;;;;;;;;;;;;5326324;28;19903;-75
2023/07/22 08:55:10;;;;;;;;;;;;;;;;;;5325860;28;19911;-74
2023/07/22 08:57:41;;;;;;;;;;;;;;;;;;5326674;28;19904;-74
2023/07/22 09:00:12;;;;;;;;;;;;;;;;;;5326866;28;19915;-74
2023/07/22 09:02:43;;;;;;;;;;;;;;;;;;5325285;28;19914;-75
2023/07/22 09:05:15;;;;;;;;;;;;;;;;;;5326556;28;19911;-75
2023/07/22 09:07:46;;;;;;;;;;;;;;;;;;5324959;28;19908;-75
2023/07/22 09:10:18;;;;;;;;;;;;;;;;;;5326565;28;20350;-74
2023/07/22 09:12:50;;;;;;;;;;;;;;;;;;5326158;28;20027;-74
2023/07/22 09:15:21;;;;;;;;;;;;;;;;;;5325953;28;20006;-74
2023/07/22 09:17:52;;;;;;;;;;;;;;;;;;5326148;28;19910;-75
2023/07/22 09:20:23;;;;;;;;;;;;;;;;;;5326324;28;19914;-75
2023/07/22 09:22:54;;;;;;;;;;;;;;;;;;5324771;28;20342;-73
2023/07/22 09:25:25;;;;;;;;;;;;;;;;;;5325756;28;20006;-74
2023/07/22 09:27:56;;;;;;;;;;;;;;;;;;5325802;28;20081;-73
2023/07/22 09:30:28;;;;;;;;;;;;;;;;;;5325378;28;19912;-76
2023/07/22 09:32:59;;;;;;;;;;;;;;;;;;5325572;28;19920;-74
2023/07/22 09:35:30;;;;;;;;;;;;;;;;;;5325711;28;19904;-73
2023/07/22 09:38:01;;;;;;;;;;;;;;;;;;5325497;28;19904;-73
2023/07/22 09:40:32;;;;;;;;;;;;;;;;;;5325172;28;19908;-74
2023/07/22 09:43:03;;;;;;;;;;;;;;;;;;5325573;28;19916;-74
2023/07/22 09:45:35;;;;;;;;;;;;;;;;;;5325452;28;19978;-74
2023/07/22 09:48:06;;;;;;;;;;;;;;;;;;5326378;28;19942;-74
2023/07/22 09:50:37;;;;;;;;;;;;;;;;;;5324636;28;19904;-73
2023/07/22 09:53:08;;;;;;;;;;;;;;;;;;5325814;28;19973;-74
2023/07/22 09:55:39;;;;;;;;;;;;;;;;;;5325457;28;19904;-74
2023/07/22 09:58:10;;;;;;;;;;;;;;;;;;5325165;28;20002;-73
2023/07/22 10:00:41;;;;;;;;;;;;;;;;;;5324371;28;20006;-74
2023/07/22 10:03:13;;;;;;;;;;;;;;;;;;5325382;28;19908;-74
2023/07/22 10:05:44;;;;;;;;;;;;;;;;;;5324011;28;19994;-73
2023/07/22 10:08:15;;;;;;;;;;;;;;;;;;5325555;28;20346;-74
2023/07/22 10:10:46;;;;;;;;;;;;;;;;;;5324554;28;19952;-75
2023/07/22 10:13:17;;;;;;;;;;;;;;;;;;5324705;28;19903;-75
2023/07/22 10:15:48;;;;;;;;;;;;;;;;;;5324810;28;19907;-74
2023/07/22 10:18:20;;;;;;;;;;;;;;;;;;5324479;28;19904;-74
2023/07/22 10:20:51;;;;;;;;;;;;;;;;;;5324506;28;19953;-74
2023/07/22 10:23:22;;;;;;;;;;;;;;;;;;5325274;28;20351;-73
2023/07/22 10:25:53;;;;;;;;;;;;;;;;;;5323743;28;19922;-75
2023/07/22 10:28:24;;;;;;;;;;;;;;;;;;5324803;28;19926;-74
2023/07/22 10:30:56;;;;;;;;;;;;;;;;;;5324911;28;19976;-74
2023/07/22 10:33:29;;;;;;;;;;;;;;;;;;5323897;28;20290;-74
2023/07/22 10:36:00;;;;;;;;;;;;;;;;;;5324710;28;19952;-74
2023/07/22 10:38:32;;;;;;;;;;;;;;;;;;5324311;28;19957;-73
2023/07/22 10:41:03;;;;;;;;;;;;;;;;;;5323658;28;19904;-74
2023/07/22 10:43:35;;;;;;;;;;;;;;;;;;5324044;28;20328;-73
2023/07/22 10:46:07;;;;;;;;;;;;;;;;;;5298450;28;20349;-73
2023/07/22 10:48:38;;;;;;;;;;;;;;;;;;5301681;28;19908;-73
2023/07/22 10:51:09;;;;;;;;;;;;;;;;;;5302085;28;20365;-74
2023/07/22 10:53:40;;;;;;;;;;;;;;;;;;5300277;28;19908;-74
2023/07/22 10:56:11;;;;;;;;;;;;;;;;;;5301231;28;19927;-74
2023/07/22 10:58:42;;;;;;;;;;;;;;;;;;5301747;28;19908;-74
2023/07/22 11:01:14;;;;;;;;;;;;;;;;;;5301484;28;19908;-73
2023/07/22 11:03:45;;;;;;;;;;;;;;;;;;5301476;28;19904;-72
2023/07/22 11:06:16;;;;;;;;;;;;;;;;;;5302435;28;19919;-74
2023/07/22 11:08:47;;;;;;;;;;;;;;;;;;5307704;28;19915;-73
2023/07/22 11:11:18;;;;;;;;;;;;;;;;;;5323660;28;19904;-74
2023/07/22 11:13:49;;;;;;;;;;;;;;;;;;5321946;28;19915;-74
2023/07/22 11:16:20;;;;;;;;;;;;;;;;;;5322465;28;20350;-74
2023/07/22 11:18:51;;;;;;;;;;;;;;;;;;5322643;28;19903;-73
2023/07/22 11:21:23;;;;;;;;;;;;;;;;;;5322814;28;20378;-73
2023/07/22 11:23:54;;;;;;;;;;;;;;;;;;5322488;28;19907;-73
2023/07/22 11:26:25;;;;;;;;;;;;;;;;;;5316522;28;20005;-73
2023/07/22 11:28:56;;;;;;;;;;;;;;;;;;5312588;28;19947;-72
2023/07/22 11:31:27;;;;;;;;;;;;;;;;;;5322336;28;19953;-72
2023/07/22 11:33:58;;;;;;;;;;;;;;;;;;5323030;28;19907;-72
2023/07/22 11:36:29;;;;;;;;;;;;;;;;;;5322040;28;19911;-73
2023/07/22 11:39:00;;;;;;;;;;;;;;;;;;5299706;28;20029;-73
2023/07/22 11:41:32;;;;;;;;;;;;;;;;;;5301429;28;20350;-73
2023/07/22 11:44:08;;;;;;;;;;;;;;;;;;5301023;28;19908;-72
2023/07/22 11:46:39;;;;;;;;;;;;;;;;;;5301199;28;20359;-74
2023/07/22 11:49:10;;;;;;;;;;;;;;;;;;5301129;28;19904;-74
2023/07/22 11:51:41;;;;;;;;;;;;;;;;;;5300376;28;19908;-72
2023/07/22 11:54:15;;;;;;;;;;;;;;;;;;5300897;28;20469;-72
2023/07/22 11:56:46;;;;;;;;;;;;;;;;;;5299254;28;20399;-72
2023/07/22 11:59:17;;;;;;;;;;;;;;;;;;5301464;28;19961;-73
2023/07/22 12:01:48;;;;;;;;;;;;;;;;;;5301938;28;19926;-73
2023/07/22 12:04:19;;;;;;;;;;;;;;;;;;5299734;28;20030;-73
2023/07/22 12:06:50;;;;;;;;;;;;;;;;;;5301900;28;19916;-72
2023/07/22 12:09:21;;;;;;;;;;;;;;;;;;5302700;28;19904;-74
2023/07/22 12:11:53;;;;;;;;;;;;;;;;;;5301181;28;19908;-73
2023/07/22 12:14:24;;;;;;;;;;;;;;;;;;5302267;28;20364;-74
2023/07/22 12:16:56;;;;;;;;;;;;;;;;;;5302407;28;20347;-73
2023/07/22 12:19:27;;;;;;;;;;;;;;;;;;5301714;28;19977;-74
2023/07/22 12:21:58;;;;;;;;;;;;;;;;;;5302285;28;19995;-70
2023/07/22 12:24:29;;;;;;;;;;;;;;;;;;5303179;28;20346;-70
2023/07/22 12:27:00;;;;;;;;;;;;;;;;;;5306403;28;19915;-70
2023/07/22 12:29:31;;;;;;;;;;;;;;;;;;5305808;28;20351;-71
2023/07/22 12:32:04;;;;;;;;;;;;;;;;;;5305589;28;19931;-71
2023/07/22 12:34:36;;;;;;;;;;;;;;;;;;5305370;28;19904;-71
2023/07/22 12:37:07;;;;;;;;;;;;;;;;;;5305926;28;20370;-72
2023/07/22 12:39:38;;;;;;;;;;;;;;;;;;5304818;28;19904;-72
2023/07/22 12:42:09;;;;;;;;;;;;;;;;;;5305752;28;19914;-71
2023/07/22 12:44:40;;;;;;;;;;;;;;;;;;5305452;28;20007;-71
2023/07/22 12:47:11;;;;;;;;;;;;;;;;;;5305080;28;19910;-71
2023/07/22 12:49:42;;;;;;;;;;;;;;;;;;5305235;28;19908;-71
2023/07/22 12:52:13;;;;;;;;;;;;;;;;;;5305646;28;19904;-71
2023/07/22 12:54:45;;;;;;;;;;;;;;;;;;5304549;28;19904;-71
2023/07/22 12:57:16;;;;;;;;;;;;;;;;;;5305716;28;19904;-71
2023/07/22 12:59:47;;;;;;;;;;;;;;;;;;5304156;28;19904;-73
2023/07/22 13:02:18;;;;;;;;;;;;;;;;;;5305552;28;19955;-74
2023/07/22 13:04:49;;;;;;;;;;;;;;;;;;5304897;28;19912;-74
2023/07/22 13:07:20;;;;;;;;;;;;;;;;;;5304683;28;19957;-74
2023/07/22 13:09:54;;;;;;;;;;;;;;;;;;5304814;28;19904;-75
2023/07/22 13:12:25;;;;;;;;;;;;;;;;;;5304857;28;19949;-75
2023/07/22 13:14:56;;;;;;;;;;;;;;;;;;5304326;28;20304;-74
2023/07/22 13:17:27;;;;;;;;;;;;;;;;;;5304892;28;19904;-74
2023/07/22 13:19:58;;;;;;;;;;;;;;;;;;5304955;28;19904;-74
2023/07/22 13:22:29;;;;;;;;;;;;;;;;;;5303909;28;20358;-75
2023/07/22 13:25:00;;;;;;;;;;;;;;;;;;5304864;28;19908;-75
2023/07/22 13:27:32;;;;;;;;;;;;;;;;;;5304281;28;19982;-75
2023/07/22 13:30:03;;;;;;;;;;;;;;;;;;5304576;28;20298;-75
2023/07/22 13:32:34;;;;;;;;;;;;;;;;;;5304180;28;19922;-75
2023/07/22 13:35:05;;;;;;;;;;;;;;;;;;5303799;28;20319;-74
2023/07/22 13:37:36;;;;;;;;;;;;;;;;;;5304436;28;19950;-75
2023/07/22 13:40:10;;;;;;;;;;;;;;;;;;5304702;28;19948;-74
2023/07/22 13:42:41;;;;;;;;;;;;;;;;;;5303492;28;19904;-75
2023/07/22 13:45:12;;;;;;;;;;;;;;;;;;5304489;28;19918;-76
2023/07/22 13:47:43;;;;;;;;;;;;;;;;;;5304120;28;19962;-74
2023/07/22 13:50:14;;;;;;;;;;;;;;;;;;5303637;28;19951;-74
2023/07/22 13:52:45;;;;;;;;;;;;;;;;;;5303842;28;19904;-74
2023/07/22 13:55:16;;;;;;;;;;;;;;;;;;5304485;28;19904;-74
2023/07/22 13:57:48;;;;;;;;;;;;;;;;;;5303283;28;19904;-74
2023/07/22 14:00:19;;;;;;;;;;;;;;;;;;5304530;28;20379;-74
2023/07/22 14:02:50;;;;;;;;;;;;;;;;;;5303624;28;20093;-74
2023/07/22 14:05:21;;;;;;;;;;;;;;;;;;5303725;28;19955;-74
2023/07/22 14:07:52;;;;;;;;;;;;;;;;;;5303742;28;20355;-75
2023/07/22 14:10:23;;;;;;;;;;;;;;;;;;5302700;28;19904;-73
2023/07/22 14:12:54;;;;;;;;;;;;;;;;;;5303806;28;19911;-75
2023/07/22 14:15:26;;;;;;;;;;;;;;;;;;5303711;28;19904;-75
2023/07/22 14:17:57;;;;;;;;;;;;;;;;;;5302284;28;19904;-75
2023/07/22 14:20:30;;;;;;;;;;;;;;;;;;5303716;28;20266;-74
2023/07/22 14:23:01;;;;;;;;;;;;;;;;;;5304093;28;19908;-74
2023/07/22 14:25:32;;;;;;;;;;;;;;;;;;5302418;28;19919;-74
2023/07/22 14:28:03;;;;;;;;;;;;;;;;;;5303762;28;19915;-75
2023/07/22 14:30:34;;;;;;;;;;;;;;;;;;5303116;28;19904;-76
2023/07/22 14:33:05;;;;;;;;;;;;;;;;;;5303025;28;19969;-74
2023/07/22 14:35:36;;;;;;;;;;;;;;;;;;5303082;28;19969;-76
2023/07/22 14:38:08;;;;;;;;;;;;;;;;;;5303122;28;20303;-74
2023/07/22 14:40:39;;;;;;;;;;;;;;;;;;5303231;28;19912;-75
2023/07/22 14:43:10;;;;;;;;;;;;;;;;;;5303707;28;20369;-76
2023/07/22 14:45:41;;;;;;;;;;;;;;;;;;5302070;28;19912;-76
2023/07/22 14:48:12;;;;;;;;;;;;;;;;;;5303478;28;19907;-76
2023/07/22 14:50:43;;;;;;;;;;;;;;;;;;5302909;28;19988;-77
2023/07/22 14:53:15;;;;;;;;;;;;;;;;;;5302736;28;19905;-76
2023/07/22 14:55:46;;;;;;;;;;;;;;;;;;5302742;28;19904;-76
2023/07/22 14:58:17;;;;;;;;;;;;;;;;;;5303555;28;19904;-76
2023/07/22 15:00:48;;;;;;;;;;;;;;;;;;5302095;28;20318;-75
2023/07/22 15:03:19;;;;;;;;;;;;;;;;;;5303373;28;19991;-74
2023/07/22 15:05:50;;;;;;;;;;;;;;;;;;5302714;28;19920;-75
2023/07/22 15:08:22;;;;;;;;;;;;;;;;;;5302612;28;19904;-74
2023/07/22 15:10:53;;;;;;;;;;;;;;;;;;5302879;28;20001;-76
2023/07/22 15:13:24;;;;;;;;;;;;;;;;;;5302254;28;19944;-75
2023/07/22 15:15:56;;;;;;;;;;;;;;;;;;5302946;28;19929;-74
2023/07/22 15:18:27;;;;;;;;;;;;;;;;;;5303276;28;19949;-74
2023/07/22 15:20:59;;;;;;;;;;;;;;;;;;5302236;28;20343;-74
2023/07/22 15:23:30;;;;;;;;;;;;;;;;;;5302660;28;19904;-75
2023/07/22 15:26:01;;;;;;;;;;;;;;;;;;5302421;28;20351;-75
2023/07/22 15:28:32;;;;;;;;;;;;;;;;;;5301698;28;19908;-74
2023/07/22 15:31:03;;;;;;;;;;;;;;;;;;5284815;28;20413;-74
2023/07/22 15:33:35;;;;;;;;;;;;;;;;;;5302445;28;19911;-74
2023/07/22 15:36:06;;;;;;;;;;;;;;;;;;5302168;28;19904;-74
2023/07/22 15:38:37;;;;;;;;;;;;;;;;;;5302072;28;19914;-74
2023/07/22 15:41:09;;;;;;;;;;;;;;;;;;5302698;28;20003;-75
2023/07/22 15:43:41;;;;;;;;;;;;;;;;;;5301360;28;19995;-75
2023/07/22 15:46:12;;;;;;;;;;;;;;;;;;5302689;28;19919;-75
2023/07/22 15:48:43;;;;;;;;;;;;;;;;;;5301512;28;19919;-75
2023/07/22 15:51:14;;;;;;;;;;;;;;;;;;5302802;28;19904;-74
2023/07/22 15:53:45;;;;;;;;;;;;;;;;;;5302317;28;19911;-74
2023/07/22 15:56:16;;;;;;;;;;;;;;;;;;5302105;28;19904;-74
2023/07/22 15:58:47;;;;;;;;;;;;;;;;;;5302917;28;19904;-74
2023/07/22 16:01:19;;;;;;;;;;;;;;;;;;5306837;28;20412;-75
2023/07/22 16:03:50;;;;;;;;;;;;;;;;;;5312198;28;19960;-73
2023/07/22 16:06:21;;;;;;;;;;;;;;;;;;5327801;28;20375;-73
2023/07/22 16:08:52;;;;;;;;;;;;;;;;;;5327282;28;19911;-74
2023/07/22 16:11:23;;;;;;;;;;;;;;;;;;5326431;28;19950;-73
2023/07/22 16:13:54;;;;;;;;;;;;;;;;;;5327010;28;19911;-73
2023/07/22 16:16:25;;;;;;;;;;;;;;;;;;5327203;28;19904;-74
2023/07/22 16:18:56;;;;;;;;;;;;;;;;;;5326179;28;19910;-74
2023/07/22 16:21:27;;;;;;;;;;;;;;;;;;5327267;28;20364;-75
2023/07/22 16:23:59;;;;;;;;;;;;;;;;;;5326216;28;19903;-74
2023/07/22 16:26:30;;;;;;;;;;;;;;;;;;5325895;28;20247;-74
2023/07/22 16:29:01;;;;;;;;;;;;;;;;;;5327554;28;20369;-75
2023/07/22 16:31:33;;;;;;;;;;;;;;;;;;5324731;28;19926;-74
2023/07/22 16:34:04;;;;;;;;;;;;;;;;;;5327234;28;20319;-75
2023/07/22 16:36:35;;;;;;;;;;;;;;;;;;5324942;28;19914;-75
2023/07/22 16:39:06;;;;;;;;;;;;;;;;;;5326073;28;19911;-75
2023/07/22 16:41:38;;;;;;;;;;;;;;;;;;5326640;28;19949;-75
2023/07/22 16:44:09;;;;;;;;;;;;;;;;;;5327526;28;19910;-75
2023/07/22 16:46:40;;;;;;;;;;;;;;;;;;5322484;28;19919;-76
2023/07/22 16:49:12;;;;;;;;;;;;;;;;;;5303847;28;20208;-76
2023/07/22 16:51:43;;;;;;;;;;;;;;;;;;5304154;28;19919;-76
2023/07/22 16:54:14;;;;;;;;;;;;;;;;;;5305024;28;19904;-75
2023/07/22 16:56:47;;;;;;;;;;;;;;;;;;5305019;28;19931;-75
2023/07/22 16:59:18;;;;;;;;;;;;;;;;;;5304860;28;19927;-76
2023/07/22 17:01:49;;;;;;;;;;;;;;;;;;5304390;28;19907;-75
2023/07/22 17:04:20;;;;;;;;;;;;;;;;;;5305140;28;19904;-76
2023/07/22 17:06:51;;;;;;;;;;;;;;;;;;5304260;28;19923;-76
2023/07/22 17:09:22;;;;;;;;;;;;;;;;;;5305346;28;20316;-76
2023/07/22 17:11:53;;;;;;;;;;;;;;;;;;5303419;28;19911;-76